createdAt,value
2022-10-18T00:00:15.153Z,5.92
2022-10-18T00:02:43.193Z,5.84
2022-10-18T00:05:11.277Z,5.83
2022-10-18T00:07:39.217Z,5.83
2022-10-18T00:10:08.328Z,5.82
2022-10-18T00:12:36.471Z,5.76
2022-10-18T00:15:05.269Z,5.73
2022-10-18T00:17:35.120Z,5.68
2022-10-18T00:20:03.157Z,5.62
2022-10-18T00:22:31.311Z,5.58
2022-10-18T00:24:59.408Z,5.57
2022-10-18T00:27:27.377Z,5.53
2022-10-18T00:29:55.345Z,5.51
2022-10-18T00:32:23.312Z,5.49
2022-10-18T00:34:52.646Z,5.46
2022-10-18T00:37:20.591Z,5.47
2022-10-18T00:39:48.667Z,5.47
2022-10-18T00:42:17.294Z,5.45
2022-10-18T00:45:21.856Z,5.43
2022-10-18T00:47:53.113Z,5.37
2022-10-18T00:50:22.807Z,5.40
2022-10-18T00:52:53.282Z,5.39
2022-10-18T00:55:21.282Z,5.34
2022-10-18T00:57:49.348Z,5.37
2022-10-18T01:00:17.326Z,5.39
2022-10-18T01:02:45.956Z,5.37
2022-10-18T01:05:14.426Z,5.40
2022-10-18T01:07:58.476Z,5.43
2022-10-18T01:10:29.003Z,5.46
2022-10-18T01:13:04.491Z,5.46
2022-10-18T01:15:33.249Z,5.40
2022-10-18T01:18:08.178Z,5.45
2022-10-18T01:21:06.047Z,5.44
2022-10-18T01:23:43.087Z,5.43
2022-10-18T01:26:20.212Z,5.43
2022-10-18T01:28:54.650Z,5.38
2022-10-18T01:31:24.024Z,5.37
2022-10-18T01:33:53.328Z,5.24
2022-10-18T01:36:23.178Z,5.34
2022-10-18T01:38:52.358Z,5.23
2022-10-18T01:41:20.406Z,5.27
2022-10-18T01:43:49.113Z,5.24
2022-10-18T01:46:19.125Z,5.20
2022-10-18T01:48:48.836Z,5.13
2022-10-18T01:51:16.837Z,5.15
2022-10-18T01:53:44.765Z,5.11
2022-10-18T01:56:18.959Z,5.08
2022-10-18T01:58:51.108Z,5.04
2022-10-18T02:01:21.657Z,5.02
2022-10-18T02:03:50.959Z,4.99
2022-10-18T02:06:20.979Z,4.86
2022-10-18T02:08:51.095Z,4.77
2022-10-18T02:11:19.103Z,4.81
2022-10-18T02:13:48.501Z,4.64
2022-10-18T02:16:18.214Z,4.73
2022-10-18T02:18:47.920Z,4.71
2022-10-18T02:21:18.588Z,4.73
2022-10-18T02:23:46.624Z,4.73
2022-10-18T02:26:14.804Z,4.72
2022-10-18T02:28:42.775Z,4.71
2022-10-18T02:31:13.757Z,4.68
2022-10-18T02:33:45.312Z,4.66
2022-10-18T02:36:14.738Z,4.67
2022-10-18T02:38:44.133Z,4.62
2022-10-18T02:41:12.113Z,4.60
2022-10-18T02:43:40.082Z,4.54
2022-10-18T02:46:08.330Z,4.52
2022-10-18T02:48:36.262Z,4.48
2022-10-18T02:51:04.219Z,4.47
2022-10-18T02:53:32.202Z,4.46
2022-10-18T02:56:01.533Z,4.46
2022-10-18T02:58:29.466Z,4.47
2022-10-18T03:00:57.403Z,4.48
2022-10-18T03:03:25.411Z,4.47
2022-10-18T03:05:53.590Z,4.46
2022-10-18T03:08:22.803Z,4.46
2022-10-18T03:10:50.790Z,4.47
2022-10-18T03:13:20.228Z,4.52
2022-10-18T03:15:48.331Z,4.54
2022-10-18T03:18:16.286Z,4.57
2022-10-18T03:20:44.246Z,4.66
2022-10-18T03:23:12.207Z,4.66
2022-10-18T03:25:42.845Z,4.71
2022-10-18T03:28:13.703Z,4.72
2022-10-18T03:30:43.007Z,4.74
2022-10-18T03:33:10.965Z,4.75
2022-10-18T03:35:38.951Z,4.73
2022-10-18T03:38:06.916Z,4.86
2022-10-18T03:40:34.862Z,4.87
2022-10-18T03:43:02.859Z,4.86
2022-10-18T03:45:31.608Z,4.80
2022-10-18T03:48:01.155Z,4.76
2022-10-18T03:50:29.125Z,4.63
2022-10-18T03:52:57.039Z,4.63
2022-10-18T03:55:24.953Z,4.57
2022-10-18T03:57:52.902Z,4.48
2022-10-18T04:00:20.923Z,4.43
2022-10-18T04:02:51.957Z,4.33
2022-10-18T04:05:26.975Z,4.32
2022-10-18T04:07:54.930Z,4.26
2022-10-18T04:10:22.897Z,4.19
2022-10-18T04:12:50.867Z,4.21
2022-10-18T04:15:19.133Z,4.20
2022-10-18T04:17:47.136Z,4.15
2022-10-18T04:20:15.100Z,4.23
2022-10-18T04:22:44.505Z,4.21
2022-10-18T04:25:12.475Z,4.21
2022-10-18T04:27:40.420Z,4.15
2022-10-18T04:30:09.307Z,4.16
2022-10-18T04:32:37.269Z,4.13
2022-10-18T04:35:05.583Z,4.11
2022-10-18T04:37:34.141Z,4.06
2022-10-18T04:40:03.877Z,4.14
2022-10-18T04:42:31.845Z,4.11
2022-10-18T04:44:59.871Z,4.09
2022-10-18T04:47:27.887Z,4.08
2022-10-18T04:49:55.859Z,4.11
2022-10-18T04:52:23.825Z,4.13
2022-10-18T04:54:51.854Z,4.17
2022-10-18T04:57:21.201Z,4.20
2022-10-18T04:59:49.277Z,4.28
2022-10-18T05:02:17.406Z,4.21
2022-10-18T05:04:45.411Z,4.38
2022-10-18T05:07:13.387Z,4.54
2022-10-18T05:09:41.354Z,4.71
2022-10-18T05:12:09.330Z,4.91
2022-10-18T05:14:38.626Z,5.14
2022-10-18T05:17:06.596Z,5.43
2022-10-18T05:19:34.562Z,5.72
2022-10-18T05:22:02.535Z,5.98
2022-10-18T05:24:30.483Z,6.30
2022-10-18T05:26:58.612Z,6.53
2022-10-18T05:31:57.003Z,6.98
2022-10-18T05:34:27.359Z,7.17
2022-10-18T05:36:55.453Z,7.34
2022-10-18T05:39:23.615Z,7.46
2022-10-18T05:41:51.678Z,7.60
2022-10-18T05:44:19.584Z,7.51
2022-10-18T05:46:47.555Z,7.32
2022-10-18T05:49:17.063Z,7.78
2022-10-18T05:51:45.030Z,7.84
2022-10-18T05:54:13.101Z,7.85
2022-10-18T05:56:41.225Z,8.02
2022-10-18T05:59:12.301Z,7.97
2022-10-18T06:01:43.386Z,8.10
2022-10-18T06:04:11.446Z,8.03
2022-10-18T06:06:40.826Z,8.12
2022-10-18T06:09:08.947Z,8.43
2022-10-18T06:11:37.187Z,8.69
2022-10-18T06:14:05.272Z,8.89
2022-10-18T06:16:33.300Z,8.95
2022-10-18T06:19:01.338Z,8.99
2022-10-18T06:21:29.374Z,9.11
2022-10-18T06:23:59.573Z,9.12
2022-10-18T06:26:28.189Z,9.21
2022-10-18T06:28:56.223Z,9.28
2022-10-18T06:31:24.330Z,9.41
2022-10-18T06:33:52.262Z,9.49
2022-10-18T06:36:22.115Z,9.45
2022-10-18T06:38:50.070Z,9.76
2022-10-18T06:41:19.672Z,9.86
2022-10-18T06:43:49.885Z,9.97
2022-10-18T06:46:17.873Z,9.95
2022-10-18T06:48:45.917Z,9.91
2022-10-18T06:51:15.295Z,10.27
2022-10-18T06:53:53.425Z,10.36
2022-10-18T06:56:32.578Z,10.46
2022-10-18T06:59:00.711Z,10.64
2022-10-18T07:01:29.198Z,10.70
2022-10-18T07:03:57.277Z,10.93
2022-10-18T07:06:25.283Z,11.13
2022-10-18T07:08:54.253Z,11.26
2022-10-18T07:11:24.229Z,11.40
2022-10-18T07:13:54.151Z,11.53
2022-10-18T07:16:22.256Z,11.66
2022-10-18T07:18:51.158Z,11.79
2022-10-18T07:21:20.268Z,11.90
2022-10-18T07:23:48.318Z,11.91
2022-10-18T07:26:17.400Z,11.98
2022-10-18T07:28:46.173Z,12.06
2022-10-18T07:31:15.577Z,12.16
2022-10-18T07:33:44.074Z,12.31
2022-10-18T07:36:12.448Z,12.45
2022-10-18T07:38:40.811Z,12.49
2022-10-18T07:41:09.021Z,12.60
2022-10-18T07:43:37.161Z,12.80
2022-10-18T07:46:05.902Z,12.82
2022-10-18T07:48:35.265Z,12.88
2022-10-18T07:51:03.321Z,12.92
2022-10-18T07:53:31.349Z,12.92
2022-10-18T07:56:01.489Z,13.06
2022-10-18T07:58:32.319Z,13.18
2022-10-18T08:01:03.588Z,13.36
2022-10-18T08:03:31.588Z,13.53
2022-10-18T08:06:00.926Z,13.63
2022-10-18T08:08:28.936Z,13.87
2022-10-18T08:10:56.979Z,13.91
2022-10-18T08:13:24.942Z,14.04
2022-10-18T08:15:52.932Z,14.10
2022-10-18T08:18:20.885Z,14.22
2022-10-18T08:20:48.867Z,14.21
2022-10-18T08:23:18.255Z,14.41
2022-10-18T08:25:46.219Z,14.55
2022-10-18T08:28:14.615Z,14.77
2022-10-18T08:30:42.596Z,14.86
2022-10-18T08:33:10.658Z,15.03
2022-10-18T08:35:38.614Z,15.10
2022-10-18T08:38:13.880Z,15.26
2022-10-18T08:40:45.475Z,15.35
2022-10-18T08:43:20.732Z,15.31
2022-10-18T08:45:49.638Z,15.50
2022-10-18T08:48:21.943Z,15.59
2022-10-18T08:50:50.113Z,15.79
2022-10-18T08:53:20.509Z,15.96
2022-10-18T08:55:52.661Z,16.33
2022-10-18T08:58:21.872Z,16.84
2022-10-18T09:00:55.479Z,17.18
2022-10-18T09:03:30.829Z,17.33
2022-10-18T09:06:03.723Z,17.61
2022-10-18T09:08:41.913Z,18.00
2022-10-18T09:11:19.968Z,17.74
2022-10-18T09:14:03.663Z,17.74
2022-10-18T09:16:35.519Z,17.76
2022-10-18T09:19:07.690Z,17.59
2022-10-18T09:21:41.350Z,17.74
2022-10-18T09:24:13.150Z,17.68
2022-10-18T09:26:44.604Z,17.83
2022-10-18T09:29:24.352Z,17.98
2022-10-18T09:31:54.017Z,18.14
2022-10-18T09:34:26.640Z,18.17
2022-10-18T09:36:54.615Z,18.28
2022-10-18T09:39:24.622Z,18.23
2022-10-18T09:41:55.357Z,18.35
2022-10-18T09:44:24.453Z,18.29
2022-10-18T09:46:54.674Z,18.30
2022-10-18T09:49:24.595Z,18.03
2022-10-18T09:51:52.952Z,18.27
2022-10-18T09:54:23.390Z,18.75
2022-10-18T09:56:53.690Z,19.19
2022-10-18T09:59:40.604Z,19.62
2022-10-18T10:02:10.571Z,19.81
2022-10-18T10:04:38.627Z,19.84
2022-10-18T10:07:08.665Z,20.28
2022-10-18T10:09:38.660Z,20.76
2022-10-18T10:12:31.075Z,20.58
2022-10-18T10:15:08.986Z,20.70
2022-10-18T10:17:37.208Z,20.74
2022-10-18T10:20:06.379Z,20.63
2022-10-18T10:22:36.449Z,20.97
2022-10-18T10:25:04.722Z,21.13
2022-10-18T10:27:35.133Z,21.15
2022-10-18T10:30:06.978Z,20.91
2022-10-18T10:32:46.432Z,20.73
2022-10-18T10:35:33.801Z,20.91
2022-10-18T10:38:23.839Z,20.72
2022-10-18T10:40:51.788Z,20.62
2022-10-18T10:43:39.284Z,20.65
2022-10-18T10:46:08.863Z,20.69
2022-10-18T10:48:42.590Z,20.83
2022-10-18T10:51:11.372Z,21.23
2022-10-18T10:53:45.100Z,21.46
2022-10-18T10:56:27.457Z,21.68
2022-10-18T10:58:57.242Z,22.21
2022-10-18T11:01:32.685Z,22.59
2022-10-18T11:04:02.135Z,22.51
2022-10-18T11:06:46.281Z,22.19
2022-10-18T11:09:24.371Z,22.10
2022-10-18T11:11:58.071Z,22.36
2022-10-18T11:14:28.151Z,22.53
2022-10-18T11:17:02.065Z,22.33
2022-10-18T11:19:35.924Z,22.38
2022-10-18T11:22:04.161Z,23.10
2022-10-18T11:24:32.373Z,23.57
2022-10-18T11:27:01.892Z,24.45
2022-10-18T11:29:40.927Z,26.30
2022-10-18T11:32:13.029Z,26.33
2022-10-18T11:34:49.098Z,27.86
2022-10-18T11:37:46.190Z,29.77
2022-10-18T11:40:26.474Z,29.58
2022-10-18T11:42:57.372Z,30.44
2022-10-18T11:48:06.755Z,30.87
2022-10-18T11:50:36.314Z,30.50
2022-10-18T11:53:13.421Z,30.47
2022-10-18T11:55:49.854Z,28.12
2022-10-18T11:58:39.533Z,26.56
2022-10-18T12:01:17.678Z,25.09
2022-10-18T12:03:52.041Z,24.06
2022-10-18T12:06:22.270Z,23.24
2022-10-18T12:08:51.283Z,22.48
2022-10-18T12:11:21.012Z,22.19
2022-10-18T12:13:50.266Z,21.76
2022-10-18T12:16:33.451Z,21.24
2022-10-18T12:19:09.704Z,21.03
2022-10-18T12:21:39.497Z,20.90
2022-10-18T12:24:08.677Z,20.68
2022-10-18T12:26:36.663Z,20.36
2022-10-18T12:29:09.963Z,20.37
2022-10-18T12:31:41.705Z,20.34
2022-10-18T12:34:26.280Z,20.25
2022-10-18T12:37:31.253Z,20.09
2022-10-18T12:40:20.301Z,20.07
2022-10-18T12:42:49.256Z,20.05
2022-10-18T12:45:35.546Z,20.04
2022-10-18T12:48:06.731Z,19.90
2022-10-18T12:50:36.400Z,19.80
2022-10-18T12:53:19.069Z,19.79
2022-10-18T12:55:47.696Z,19.75
2022-10-18T12:58:31.904Z,19.69
2022-10-18T13:01:09.603Z,19.71
2022-10-18T13:04:02.849Z,19.67
2022-10-18T13:07:03.782Z,19.64
2022-10-18T13:09:32.089Z,19.56
2022-10-18T13:12:02.151Z,19.53
2022-10-18T13:14:48.334Z,19.47
2022-10-18T13:17:31.114Z,19.42
2022-10-18T13:20:26.721Z,19.44
2022-10-18T13:23:01.874Z,19.34
2022-10-18T13:25:32.498Z,19.30
2022-10-18T13:28:03.583Z,19.16
2022-10-18T13:30:34.276Z,19.28
2022-10-18T13:33:10.823Z,19.16
2022-10-18T13:35:51.895Z,19.14
2022-10-18T13:38:48.542Z,19.22
2022-10-18T13:41:18.163Z,19.18
2022-10-18T13:43:56.326Z,19.17
2022-10-18T13:46:24.791Z,19.13
2022-10-18T13:48:52.929Z,19.00
2022-10-18T13:51:50.018Z,18.97
2022-10-18T13:54:39.741Z,18.94
2022-10-18T13:57:16.321Z,18.87
2022-10-18T14:00:03.128Z,18.87
2022-10-18T14:02:51.746Z,18.83
2022-10-18T14:05:29.659Z,18.77
2022-10-18T14:08:01.415Z,18.71
2022-10-18T14:10:50.232Z,18.63
2022-10-18T14:13:24.240Z,18.62
2022-10-18T14:15:53.192Z,18.58
2022-10-18T14:18:23.793Z,18.53
2022-10-18T14:21:12.238Z,18.49
2022-10-18T14:23:43.672Z,18.48
2022-10-18T14:26:15.191Z,18.45
2022-10-18T14:28:59.146Z,18.37
2022-10-18T14:31:27.746Z,18.29
2022-10-18T14:33:57.881Z,18.30
2022-10-18T14:36:27.356Z,18.21
2022-10-18T14:38:57.289Z,18.18
2022-10-18T14:41:25.976Z,18.05
2022-10-18T14:43:55.456Z,17.97
2022-10-18T14:46:28.053Z,17.81
2022-10-18T14:48:59.810Z,17.88
2022-10-18T14:51:28.479Z,17.67
2022-10-18T14:53:58.718Z,17.53
2022-10-18T14:56:29.031Z,17.56
2022-10-18T14:58:57.998Z,17.42
2022-10-18T15:01:27.655Z,17.51
2022-10-18T15:03:58.409Z,17.36
2022-10-18T15:06:27.172Z,17.32
2022-10-18T15:08:58.732Z,17.20
2022-10-18T15:11:27.514Z,17.03
2022-10-18T15:13:56.945Z,16.82
2022-10-18T15:16:27.033Z,16.62
2022-10-18T15:19:03.371Z,16.44
2022-10-18T15:21:31.915Z,16.24
2022-10-18T15:24:23.073Z,16.02
2022-10-18T15:26:51.710Z,15.84
2022-10-18T15:29:21.000Z,15.48
2022-10-18T15:31:49.977Z,15.39
2022-10-18T15:34:21.242Z,15.21
2022-10-18T15:36:49.919Z,14.94
2022-10-18T15:39:19.356Z,14.81
2022-10-18T15:41:50.830Z,14.61
2022-10-18T15:44:24.488Z,14.42
2022-10-18T15:47:11.601Z,14.19
2022-10-18T15:49:55.261Z,14.03
2022-10-18T15:52:38.288Z,13.84
2022-10-18T15:55:47.337Z,13.64
2022-10-18T15:58:20.411Z,13.51
2022-10-18T16:00:48.495Z,13.37
2022-10-18T16:03:16.648Z,13.20
2022-10-18T16:05:44.835Z,13.01
2022-10-18T16:08:22.710Z,13.01
2022-10-18T16:10:50.709Z,12.89
2022-10-18T16:13:20.073Z,12.79
2022-10-18T16:15:48.086Z,12.66
2022-10-18T16:18:17.598Z,12.61
2022-10-18T16:20:45.647Z,12.58
2022-10-18T16:23:18.565Z,12.52
2022-10-18T16:25:46.667Z,12.43
2022-10-18T16:28:15.885Z,12.35
2022-10-18T16:30:46.338Z,12.27
2022-10-18T16:33:17.907Z,12.17
2022-10-18T16:35:49.500Z,12.13
2022-10-18T16:38:32.467Z,11.97
2022-10-18T16:41:02.227Z,12.00
2022-10-18T16:43:30.240Z,11.96
2022-10-18T16:45:59.799Z,11.89
2022-10-18T16:48:27.770Z,11.84
2022-10-18T16:50:56.749Z,11.75
2022-10-18T16:53:25.168Z,11.73
2022-10-18T16:55:54.562Z,11.67
2022-10-18T17:00:51.705Z,11.57
2022-10-18T17:03:21.156Z,11.54
2022-10-18T17:05:49.162Z,11.43
2022-10-18T17:08:19.927Z,11.39
2022-10-18T17:10:48.432Z,11.34
2022-10-18T17:13:16.551Z,11.24
2022-10-18T17:15:44.575Z,11.12
2022-10-18T17:18:14.111Z,11.07
2022-10-18T17:20:43.545Z,11.15
2022-10-18T17:23:11.619Z,11.12
2022-10-18T17:25:47.235Z,11.05
2022-10-18T17:28:25.908Z,10.98
2022-10-18T17:30:53.926Z,10.93
2022-10-18T17:33:21.884Z,10.91
2022-10-18T17:35:51.261Z,10.86
2022-10-18T17:38:19.298Z,10.79
2022-10-18T17:40:47.460Z,10.76
2022-10-18T17:43:15.522Z,10.72
2022-10-18T17:45:48.294Z,10.68
2022-10-18T17:48:16.322Z,10.63
2022-10-18T17:50:44.372Z,10.59
2022-10-18T17:53:14.067Z,10.57
2022-10-18T17:55:42.283Z,10.51
2022-10-18T17:58:10.270Z,10.48
2022-10-18T18:00:38.299Z,10.43
2022-10-18T18:03:06.369Z,10.37
2022-10-18T18:05:35.028Z,10.35
2022-10-18T18:08:04.154Z,10.31
2022-10-18T18:10:34.784Z,10.27
2022-10-18T18:13:02.816Z,10.21
2022-10-18T18:15:30.933Z,10.17
2022-10-18T18:17:59.023Z,10.11
2022-10-18T18:20:27.188Z,10.09
2022-10-18T18:22:55.169Z,10.05
2022-10-18T18:25:23.231Z,10.01
2022-10-18T18:27:52.620Z,9.97
2022-10-18T18:30:21.879Z,9.93
2022-10-18T18:32:49.919Z,9.88
2022-10-18T18:35:17.993Z,9.82
2022-10-18T18:37:46.064Z,9.79
2022-10-18T18:40:14.066Z,9.74
2022-10-18T18:42:42.108Z,9.69
2022-10-18T18:45:11.583Z,9.67
2022-10-18T18:47:40.093Z,9.67
2022-10-18T18:50:09.177Z,9.44
2022-10-18T18:52:37.157Z,9.61
2022-10-18T18:55:05.636Z,9.58
2022-10-18T18:57:33.916Z,9.48
2022-10-18T19:00:02.177Z,9.44
2022-10-18T19:02:31.495Z,9.48
2022-10-18T19:04:59.531Z,9.44
2022-10-18T19:07:28.090Z,9.43
2022-10-18T19:09:56.111Z,9.41
2022-10-18T19:12:24.194Z,9.26
2022-10-18T19:14:52.264Z,9.34
2022-10-18T19:17:21.766Z,9.31
2022-10-18T19:19:52.013Z,9.29
2022-10-18T19:22:19.965Z,9.29
2022-10-18T19:24:48.005Z,9.26
2022-10-18T19:27:15.989Z,9.26
2022-10-18T19:29:44.118Z,9.24
2022-10-18T19:32:13.418Z,9.27
2022-10-18T19:34:41.525Z,9.25
2022-10-18T19:37:10.962Z,9.26
2022-10-18T19:39:38.929Z,9.23
2022-10-18T19:42:08.915Z,9.24
2022-10-18T19:44:37.460Z,9.22
2022-10-18T19:47:05.557Z,9.21
2022-10-18T19:49:33.639Z,9.23
2022-10-18T19:52:01.595Z,9.18
2022-10-18T19:54:31.148Z,9.14
2022-10-18T19:56:59.114Z,9.10
2022-10-18T19:59:27.127Z,9.01
2022-10-18T20:01:55.155Z,9.03
2022-10-18T20:04:23.127Z,8.99
2022-10-18T20:06:51.122Z,8.95
2022-10-18T20:09:21.390Z,8.94
2022-10-18T20:11:50.760Z,8.88
2022-10-18T20:14:18.906Z,8.82
2022-10-18T20:16:46.939Z,8.76
2022-10-18T20:19:14.937Z,8.70
2022-10-18T20:21:42.908Z,8.60
2022-10-18T20:24:12.064Z,8.59
2022-10-18T20:26:40.691Z,8.57
2022-10-18T20:29:10.186Z,8.55
2022-10-18T20:31:39.225Z,8.51
2022-10-18T20:34:08.187Z,8.45
2022-10-18T20:36:36.150Z,8.44
2022-10-18T20:39:04.693Z,8.35
2022-10-18T20:41:33.820Z,8.29
2022-10-18T20:44:02.421Z,8.24
2022-10-18T20:46:32.908Z,8.19
2022-10-18T20:49:00.896Z,8.15
2022-10-18T20:51:28.984Z,8.13
2022-10-18T20:53:56.996Z,8.12
2022-10-18T20:56:26.745Z,8.10
2022-10-18T20:58:56.514Z,8.06
2022-10-18T21:01:25.648Z,8.02
2022-10-18T21:03:55.944Z,7.96
2022-10-18T21:06:24.643Z,7.90
2022-10-18T21:08:53.988Z,7.87
2022-10-18T21:11:21.965Z,7.83
2022-10-18T21:13:51.941Z,7.81
2022-10-18T21:16:19.940Z,7.79
2022-10-18T21:18:47.963Z,7.83
2022-10-18T21:21:18.154Z,7.80
2022-10-18T21:23:46.219Z,7.79
2022-10-18T21:26:15.208Z,7.75
2022-10-18T21:28:43.268Z,7.72
2022-10-18T21:31:13.450Z,7.69
2022-10-18T21:33:41.512Z,7.68
2022-10-18T21:36:09.639Z,7.69
2022-10-18T21:38:39.175Z,7.62
2022-10-18T21:41:10.913Z,7.57
2022-10-18T21:43:40.621Z,7.55
2022-10-18T21:46:08.765Z,7.50
2022-10-18T21:48:36.748Z,7.44
2022-10-18T21:51:05.043Z,7.41
2022-10-18T21:53:33.047Z,7.40
2022-10-18T21:56:07.491Z,7.40
2022-10-18T21:58:35.854Z,7.41
2022-10-18T22:01:03.986Z,7.36
2022-10-18T22:03:31.961Z,7.31
2022-10-18T22:06:01.382Z,7.27
2022-10-18T22:08:29.441Z,7.24
2022-10-18T22:10:58.036Z,7.22
2022-10-18T22:13:27.679Z,7.20
2022-10-18T22:15:55.800Z,7.16
2022-10-18T22:18:23.769Z,7.13
2022-10-18T22:20:55.493Z,7.10
2022-10-18T22:23:23.495Z,7.10
2022-10-18T22:25:51.535Z,7.16
2022-10-18T22:28:19.594Z,7.15
2022-10-18T22:30:49.126Z,7.13
2022-10-18T22:33:17.181Z,7.19
2022-10-18T22:35:47.062Z,7.13
2022-10-18T22:38:15.108Z,7.10
2022-10-18T22:40:43.075Z,7.07
2022-10-18T22:43:11.049Z,6.99
2022-10-18T22:45:39.933Z,6.99
2022-10-18T22:48:09.395Z,6.92
2022-10-18T22:50:37.365Z,6.85
2022-10-18T22:53:05.384Z,6.81
2022-10-18T22:55:33.413Z,6.78
2022-10-18T22:58:01.419Z,6.75
2022-10-18T23:00:29.458Z,6.71
2022-10-18T23:02:57.433Z,6.66
2022-10-18T23:05:26.826Z,6.64
2022-10-18T23:07:54.815Z,6.60
2022-10-18T23:10:22.949Z,6.58
2022-10-18T23:12:50.932Z,6.58
2022-10-18T23:15:18.906Z,6.55
2022-10-18T23:17:46.992Z,6.55
2022-10-18T23:20:14.995Z,6.57
2022-10-18T23:22:44.372Z,6.53
2022-10-18T23:25:12.343Z,6.51
2022-10-18T23:27:40.359Z,6.45
2022-10-18T23:30:09.372Z,6.42
2022-10-18T23:32:38.080Z,6.34
2022-10-18T23:35:06.646Z,6.33
2022-10-18T23:37:34.962Z,6.26
2022-10-18T23:40:04.894Z,6.25
2022-10-18T23:42:32.878Z,6.25
2022-10-18T23:45:00.913Z,6.24
2022-10-18T23:47:28.973Z,6.17
2022-10-18T23:49:58.922Z,6.16
2022-10-18T23:52:26.889Z,6.09
2022-10-18T23:54:54.866Z,6.04
2022-10-18T23:57:24.238Z,5.94
2022-10-18T23:59:52.194Z,5.95
